sensor_id;sensor_type;location;lat;lon;timestamp;temperature;humidity
13086;DHT22;6609;49.882;8.664;2023-09-08T00:05:55;19.00;73.40
13086;DHT22;6609;49.882;8.664;2023-09-08T00:13:17;19.00;73.50
13086;DHT22;6609;49.882;8.664;2023-09-08T00:23:08;19.00;73.20
13086;DHT22;6609;49.882;8.664;2023-09-08T00:28:02;19.00;73.00
13086;DHT22;6609;49.882;8.664;2023-09-08T00:55:05;18.90;72.70
13086;DHT22;6609;49.882;8.664;2023-09-08T00:57:32;18.90;72.80
13086;DHT22;6609;49.882;8.664;2023-09-08T01:14:49;18.80;73.00
13086;DHT22;6609;49.882;8.664;2023-09-08T01:22:26;18.80;72.70
13086;DHT22;6609;49.882;8.664;2023-09-08T01:25:09;18.80;72.60
13086;DHT22;6609;49.882;8.664;2023-09-08T01:30:07;18.80;72.80
13086;DHT22;6609;49.882;8.664;2023-09-08T01:32:34;18.80;72.80
13086;DHT22;6609;49.882;8.664;2023-09-08T01:37:28;18.70;73.00
13086;DHT22;6609;49.882;8.664;2023-09-08T01:39:55;18.70;73.10
13086;DHT22;6609;49.882;8.664;2023-09-08T01:42:23;18.70;73.00
13086;DHT22;6609;49.882;8.664;2023-09-08T01:52:10;18.60;72.80
13086;DHT22;6609;49.882;8.664;2023-09-08T01:54:37;18.60;72.80
13086;DHT22;6609;49.882;8.664;2023-09-08T02:04:27;18.50;73.00
13086;DHT22;6609;49.882;8.664;2023-09-08T02:06:53;18.40;72.90
13086;DHT22;6609;49.882;8.664;2023-09-08T02:11:47;18.30;73.10
13086;DHT22;6609;49.882;8.664;2023-09-08T02:19:09;18.20;73.70
13086;DHT22;6609;49.882;8.664;2023-09-08T02:21:36;18.20;73.90
13086;DHT22;6609;49.882;8.664;2023-09-08T02:26:30;18.20;74.20
13086;DHT22;6609;49.882;8.664;2023-09-08T02:31:26;18.10;74.20
13086;DHT22;6609;49.882;8.664;2023-09-08T02:33:54;18.10;74.20
13086;DHT22;6609;49.882;8.664;2023-09-08T02:38:50;18.10;74.80
13086;DHT22;6609;49.882;8.664;2023-09-08T02:43:44;18.00;74.80
13086;DHT22;6609;49.882;8.664;2023-09-08T02:48:38;17.90;74.80
13086;DHT22;6609;49.882;8.664;2023-09-08T02:58:29;17.80;75.50
13086;DHT22;6609;49.882;8.664;2023-09-08T03:00:56;17.80;75.90
13086;DHT22;6609;49.882;8.664;2023-09-08T03:05:53;17.80;76.80
13086;DHT22;6609;49.882;8.664;2023-09-08T03:10:49;17.80;77.40
13086;DHT22;6609;49.882;8.664;2023-09-08T03:13:16;17.80;77.60
13086;DHT22;6609;49.882;8.664;2023-09-08T03:18:09;17.70;78.80
13086;DHT22;6609;49.882;8.664;2023-09-08T03:20:36;17.70;79.10
13086;DHT22;6609;49.882;8.664;2023-09-08T03:25:31;17.70;79.00
13086;DHT22;6609;49.882;8.664;2023-09-08T03:27:58;17.70;79.50
13086;DHT22;6609;49.882;8.664;2023-09-08T03:50:03;17.50;79.30
13086;DHT22;6609;49.882;8.664;2023-09-08T03:57:25;17.50;79.80
13086;DHT22;6609;49.882;8.664;2023-09-08T03:59:53;17.40;79.80
13086;DHT22;6609;49.882;8.664;2023-09-08T04:02:19;17.40;79.60
13086;DHT22;6609;49.882;8.664;2023-09-08T04:09:40;17.40;80.00
13086;DHT22;6609;49.882;8.664;2023-09-08T04:12:08;17.40;80.20
13086;DHT22;6609;49.882;8.664;2023-09-08T04:14:36;17.40;80.00
13086;DHT22;6609;49.882;8.664;2023-09-08T04:17:04;17.50;79.80
13086;DHT22;6609;49.882;8.664;2023-09-08T04:19:31;17.50;80.00
13086;DHT22;6609;49.882;8.664;2023-09-08T04:21:58;17.50;79.90
13086;DHT22;6609;49.882;8.664;2023-09-08T04:31:46;17.50;79.60
13086;DHT22;6609;49.882;8.664;2023-09-08T04:36:41;17.40;79.70
13086;DHT22;6609;49.882;8.664;2023-09-08T04:41:37;17.40;79.80
13086;DHT22;6609;49.882;8.664;2023-09-08T04:44:04;17.30;80.00
13086;DHT22;6609;49.882;8.664;2023-09-08T04:46:30;17.30;80.10
13086;DHT22;6609;49.882;8.664;2023-09-08T04:48:57;17.30;80.60
13086;DHT22;6609;49.882;8.664;2023-09-08T04:51:25;17.30;80.60
13086;DHT22;6609;49.882;8.664;2023-09-08T05:06:07;17.50;80.60
13086;DHT22;6609;49.882;8.664;2023-09-08T05:08:35;17.50;80.30
13086;DHT22;6609;49.882;8.664;2023-09-08T05:18:26;17.80;79.60
13086;DHT22;6609;49.882;8.664;2023-09-08T05:28:15;17.90;79.20
13086;DHT22;6609;49.882;8.664;2023-09-08T05:35:36;18.00;78.50
13086;DHT22;6609;49.882;8.664;2023-09-08T05:40:31;17.90;78.40
13086;DHT22;6609;49.882;8.664;2023-09-08T05:42:59;18.00;78.30
13086;DHT22;6609;49.882;8.664;2023-09-08T05:47:53;18.10;78.20
13086;DHT22;6609;49.882;8.664;2023-09-08T05:52:47;18.10;77.70
13086;DHT22;6609;49.882;8.664;2023-09-08T06:07:32;18.40;77.10
13086;DHT22;6609;49.882;8.664;2023-09-08T06:22:16;18.50;76.70
13086;DHT22;6609;49.882;8.664;2023-09-08T06:29:37;18.70;76.70
13086;DHT22;6609;49.882;8.664;2023-09-08T06:32:06;18.80;76.70
13086;DHT22;6609;49.882;8.664;2023-09-08T06:37:01;19.30;74.70
13086;DHT22;6609;49.882;8.664;2023-09-08T06:41:55;19.60;73.10
13086;DHT22;6609;49.882;8.664;2023-09-08T06:46:48;19.80;72.70
13086;DHT22;6609;49.882;8.664;2023-09-08T06:56:40;20.20;71.00
13086;DHT22;6609;49.882;8.664;2023-09-08T07:08:57;20.60;68.40
13086;DHT22;6609;49.882;8.664;2023-09-08T07:11:24;20.60;67.90
13086;DHT22;6609;49.882;8.664;2023-09-08T07:26:07;21.10;65.60
13086;DHT22;6609;49.882;8.664;2023-09-08T07:28:34;21.20;65.70
13086;DHT22;6609;49.882;8.664;2023-09-08T07:31:01;21.20;65.30
13086;DHT22;6609;49.882;8.664;2023-09-08T07:43:18;21.70;62.70
13086;DHT22;6609;49.882;8.664;2023-09-08T07:48:11;21.90;62.40
13086;DHT22;6609;49.882;8.664;2023-09-08T07:53:06;22.00;61.90
13086;DHT22;6609;49.882;8.664;2023-09-08T08:00:30;22.30;61.20
13086;DHT22;6609;49.882;8.664;2023-09-08T08:02:58;22.40;61.10
13086;DHT22;6609;49.882;8.664;2023-09-08T08:05:25;22.50;60.70
13086;DHT22;6609;49.882;8.664;2023-09-08T08:17:42;23.10;58.90
13086;DHT22;6609;49.882;8.664;2023-09-08T08:27:36;23.60;56.90
13086;DHT22;6609;49.882;8.664;2023-09-08T08:30:03;23.70;56.60
13086;DHT22;6609;49.882;8.664;2023-09-08T08:49:44;24.50;52.20
13086;DHT22;6609;49.882;8.664;2023-09-08T08:52:14;24.70;51.90
13086;DHT22;6609;49.882;8.664;2023-09-08T08:57:11;25.00;50.30
13086;DHT22;6609;49.882;8.664;2023-09-08T09:02:07;25.20;49.30
13086;DHT22;6609;49.882;8.664;2023-09-08T09:04:36;25.40;49.70
13086;DHT22;6609;49.882;8.664;2023-09-08T09:07:04;25.50;49.20
13086;DHT22;6609;49.882;8.664;2023-09-08T09:09:33;25.60;48.40
13086;DHT22;6609;49.882;8.664;2023-09-08T09:12:03;25.70;47.70
13086;DHT22;6609;49.882;8.664;2023-09-08T09:14:32;25.80;47.00
13086;DHT22;6609;49.882;8.664;2023-09-08T09:24:31;26.30;46.90
13086;DHT22;6609;49.882;8.664;2023-09-08T09:27:00;26.50;44.70
13086;DHT22;6609;49.882;8.664;2023-09-08T09:31:56;26.80;43.70
13086;DHT22;6609;49.882;8.664;2023-09-08T09:34:23;27.00;43.10
13086;DHT22;6609;49.882;8.664;2023-09-08T09:41:46;27.60;41.00
13086;DHT22;6609;49.882;8.664;2023-09-08T09:44:15;27.80;40.50
13086;DHT22;6609;49.882;8.664;2023-09-08T09:46:45;28.00;40.10
13086;DHT22;6609;49.882;8.664;2023-09-08T09:49:12;28.30;38.90
13086;DHT22;6609;49.882;8.664;2023-09-08T09:51:42;28.50;38.60
13086;DHT22;6609;49.882;8.664;2023-09-08T09:54:09;28.70;37.40
13086;DHT22;6609;49.882;8.664;2023-09-08T10:06:31;30.00;33.50
13086;DHT22;6609;49.882;8.664;2023-09-08T10:08:59;30.30;34.50
13086;DHT22;6609;49.882;8.664;2023-09-08T10:15:07;31.00;31.50
13086;DHT22;6609;49.882;8.664;2023-09-08T10:17:38;31.20;30.20
13086;DHT22;6609;49.882;8.664;2023-09-08T10:20:08;31.40;29.50
13086;DHT22;6609;49.882;8.664;2023-09-08T10:22:38;31.60;29.60
13086;DHT22;6609;49.882;8.664;2023-09-08T10:25:08;32.00;29.50
13086;DHT22;6609;49.882;8.664;2023-09-08T10:30:03;32.30;28.60
13086;DHT22;6609;49.882;8.664;2023-09-08T10:32:32;32.60;26.70
13086;DHT22;6609;49.882;8.664;2023-09-08T10:35:02;32.60;26.50
13086;DHT22;6609;49.882;8.664;2023-09-08T10:40:20;32.70;26.50
13086;DHT22;6609;49.882;8.664;2023-09-08T10:47:55;33.10;25.30
13086;DHT22;6609;49.882;8.664;2023-09-08T10:50:30;33.20;25.60
13086;DHT22;6609;49.882;8.664;2023-09-08T10:53:06;33.60;25.30
13086;DHT22;6609;49.882;8.664;2023-09-08T10:55:36;33.60;24.40
13086;DHT22;6609;49.882;8.664;2023-09-08T10:58:04;33.80;24.30
13086;DHT22;6609;49.882;8.664;2023-09-08T11:00:43;33.90;24.00
13086;DHT22;6609;49.882;8.664;2023-09-08T11:05:38;34.20;24.10
13086;DHT22;6609;49.882;8.664;2023-09-08T11:08:05;34.20;22.30
13086;DHT22;6609;49.882;8.664;2023-09-08T11:13:01;34.10;22.00
13086;DHT22;6609;49.882;8.664;2023-09-08T11:15:29;34.10;22.80
13086;DHT22;6609;49.882;8.664;2023-09-08T11:20:26;33.90;22.90
13086;DHT22;6609;49.882;8.664;2023-09-08T11:22:55;33.90;21.80
13086;DHT22;6609;49.882;8.664;2023-09-08T11:25:22;33.90;22.60
13086;DHT22;6609;49.882;8.664;2023-09-08T11:40:10;34.30;22.00
13086;DHT22;6609;49.882;8.664;2023-09-08T11:45:11;33.60;22.60
13086;DHT22;6609;49.882;8.664;2023-09-08T11:47:40;33.20;22.70
13086;DHT22;6609;49.882;8.664;2023-09-08T11:50:08;32.70;23.60
13086;DHT22;6609;49.882;8.664;2023-09-08T11:55:05;31.90;25.20
13086;DHT22;6609;49.882;8.664;2023-09-08T11:57:33;31.80;26.40
13086;DHT22;6609;49.882;8.664;2023-09-08T12:00:00;31.80;26.70
13086;DHT22;6609;49.882;8.664;2023-09-08T12:02:34;31.70;26.00
13086;DHT22;6609;49.882;8.664;2023-09-08T12:05:02;31.60;26.80
13086;DHT22;6609;49.882;8.664;2023-09-08T12:07:29;31.70;26.00
13086;DHT22;6609;49.882;8.664;2023-09-08T12:14:52;31.80;26.30
13086;DHT22;6609;49.882;8.664;2023-09-08T12:22:18;31.60;25.90
13086;DHT22;6609;49.882;8.664;2023-09-08T12:24:57;31.50;26.20
13086;DHT22;6609;49.882;8.664;2023-09-08T12:29:56;31.50;25.90
13086;DHT22;6609;49.882;8.664;2023-09-08T12:32:24;31.40;26.70
13086;DHT22;6609;49.882;8.664;2023-09-08T12:34:52;31.40;26.70
13086;DHT22;6609;49.882;8.664;2023-09-08T12:37:21;31.30;26.50
13086;DHT22;6609;49.882;8.664;2023-09-08T12:39:48;31.30;26.20
13086;DHT22;6609;49.882;8.664;2023-09-08T12:44:42;31.00;26.90
13086;DHT22;6609;49.882;8.664;2023-09-08T12:49:38;30.90;27.50
13086;DHT22;6609;49.882;8.664;2023-09-08T12:52:06;30.80;26.90
13086;DHT22;6609;49.882;8.664;2023-09-08T12:54:32;30.80;28.00
13086;DHT22;6609;49.882;8.664;2023-09-08T12:59:26;30.80;28.30
13086;DHT22;6609;49.882;8.664;2023-09-08T13:01:53;30.80;27.20
13086;DHT22;6609;49.882;8.664;2023-09-08T13:04:21;30.80;27.30
13086;DHT22;6609;49.882;8.664;2023-09-08T13:11:43;30.60;27.20
13086;DHT22;6609;49.882;8.664;2023-09-08T13:14:09;30.50;27.30
13086;DHT22;6609;49.882;8.664;2023-09-08T13:21:32;30.30;27.80
13086;DHT22;6609;49.882;8.664;2023-09-08T13:38:43;30.20;28.10
13086;DHT22;6609;49.882;8.664;2023-09-08T13:46:04;30.00;28.90
13086;DHT22;6609;49.882;8.664;2023-09-08T13:51:01;29.90;29.80
13086;DHT22;6609;49.882;8.664;2023-09-08T13:53:28;29.80;29.70
13086;DHT22;6609;49.882;8.664;2023-09-08T13:55:57;29.80;29.70
13086;DHT22;6609;49.882;8.664;2023-09-08T14:03:18;29.70;29.30
13086;DHT22;6609;49.882;8.664;2023-09-08T14:13:08;29.50;29.40
13086;DHT22;6609;49.882;8.664;2023-09-08T14:15:36;29.50;29.40
13086;DHT22;6609;49.882;8.664;2023-09-08T14:25:24;29.30;30.10
13086;DHT22;6609;49.882;8.664;2023-09-08T14:27:50;29.30;30.00
13086;DHT22;6609;49.882;8.664;2023-09-08T14:30:18;29.30;30.00
13086;DHT22;6609;49.882;8.664;2023-09-08T14:32:45;29.30;30.00
13086;DHT22;6609;49.882;8.664;2023-09-08T15:55:52;28.00;34.20
13086;DHT22;6609;49.882;8.664;2023-09-08T16:08:07;28.00;35.80
13086;DHT22;6609;49.882;8.664;2023-09-08T16:10:34;28.10;35.70
13086;DHT22;6609;49.882;8.664;2023-09-08T16:13:02;28.00;36.00
13086;DHT22;6609;49.882;8.664;2023-09-08T16:20:24;28.00;36.90
13086;DHT22;6609;49.882;8.664;2023-09-08T16:27:45;28.00;37.40
13086;DHT22;6609;49.882;8.664;2023-09-08T16:30:14;28.00;37.70
13086;DHT22;6609;49.882;8.664;2023-09-08T16:32:40;28.00;38.00
13086;DHT22;6609;49.882;8.664;2023-09-08T16:35:08;27.90;38.00
13086;DHT22;6609;49.882;8.664;2023-09-08T16:37:34;27.90;39.20
13086;DHT22;6609;49.882;8.664;2023-09-08T16:42:28;27.80;39.40
13086;DHT22;6609;49.882;8.664;2023-09-08T16:47:23;27.70;39.60
13086;DHT22;6609;49.882;8.664;2023-09-08T16:52:18;27.60;40.20
13086;DHT22;6609;49.882;8.664;2023-09-08T16:57:13;27.50;41.50
13086;DHT22;6609;49.882;8.664;2023-09-08T17:04:36;27.40;43.30
13086;DHT22;6609;49.882;8.664;2023-09-08T17:09:31;27.30;45.10
13086;DHT22;6609;49.882;8.664;2023-09-08T17:14:24;27.20;46.00
13086;DHT22;6609;49.882;8.664;2023-09-08T17:19:18;27.10;46.50
13086;DHT22;6609;49.882;8.664;2023-09-08T17:21:46;27.10;47.20
13086;DHT22;6609;49.882;8.664;2023-09-08T17:34:06;26.70;49.60
13086;DHT22;6609;49.882;8.664;2023-09-08T17:36:33;26.60;49.90
13086;DHT22;6609;49.882;8.664;2023-09-08T17:39:01;26.50;50.40
13086;DHT22;6609;49.882;8.664;2023-09-08T17:43:57;26.30;51.90
13086;DHT22;6609;49.882;8.664;2023-09-08T17:46:24;26.10;52.30
13086;DHT22;6609;49.882;8.664;2023-09-08T17:51:18;26.00;53.40
13086;DHT22;6609;49.882;8.664;2023-09-08T17:53:46;25.90;54.20
13086;DHT22;6609;49.882;8.664;2023-09-08T18:01:08;25.80;55.80
13086;DHT22;6609;49.882;8.664;2023-09-08T18:06:02;25.60;56.30
13086;DHT22;6609;49.882;8.664;2023-09-08T18:13:29;25.40;57.80
13086;DHT22;6609;49.882;8.664;2023-09-08T18:25:47;25.00;59.90
13086;DHT22;6609;49.882;8.664;2023-09-08T18:30:43;24.90;60.60
13086;DHT22;6609;49.882;8.664;2023-09-08T18:35:37;24.70;61.40
13086;DHT22;6609;49.882;8.664;2023-09-08T18:40:34;24.60;62.10
13086;DHT22;6609;49.882;8.664;2023-09-08T18:47:56;24.40;63.20
13086;DHT22;6609;49.882;8.664;2023-09-08T19:07:37;24.00;65.90
13086;DHT22;6609;49.882;8.664;2023-09-08T19:10:05;24.00;66.10
13086;DHT22;6609;49.882;8.664;2023-09-08T19:17:26;23.80;67.40
13086;DHT22;6609;49.882;8.664;2023-09-08T19:29:47;23.50;68.20
13086;DHT22;6609;49.882;8.664;2023-09-08T19:34:41;23.50;68.30
13086;DHT22;6609;49.882;8.664;2023-09-08T19:54:19;23.20;66.70
13086;DHT22;6609;49.882;8.664;2023-09-08T19:56:47;23.10;66.60
13086;DHT22;6609;49.882;8.664;2023-09-08T20:01:44;23.00;66.90
13086;DHT22;6609;49.882;8.664;2023-09-08T20:04:11;22.90;66.90
13086;DHT22;6609;49.882;8.664;2023-09-08T20:06:38;22.80;66.80
13086;DHT22;6609;49.882;8.664;2023-09-08T20:11:38;22.80;67.20
13086;DHT22;6609;49.882;8.664;2023-09-08T20:14:07;22.60;67.60
13086;DHT22;6609;49.882;8.664;2023-09-08T20:38:40;22.30;69.60
13086;DHT22;6609;49.882;8.664;2023-09-08T20:41:08;22.20;69.60
13086;DHT22;6609;49.882;8.664;2023-09-08T20:51:01;22.00;70.00
13086;DHT22;6609;49.882;8.664;2023-09-08T20:55:56;22.00;70.10
13086;DHT22;6609;49.882;8.664;2023-09-08T21:00:52;22.00;70.10
13086;DHT22;6609;49.882;8.664;2023-09-08T21:05:47;21.90;70.60
13086;DHT22;6609;49.882;8.664;2023-09-08T21:20:31;21.70;71.10
13086;DHT22;6609;49.882;8.664;2023-09-08T21:32:49;21.60;71.20
13086;DHT22;6609;49.882;8.664;2023-09-08T21:35:16;21.60;71.30
13086;DHT22;6609;49.882;8.664;2023-09-08T21:37:43;21.50;71.30
13086;DHT22;6609;49.882;8.664;2023-09-08T21:40:11;21.60;71.30
13086;DHT22;6609;49.882;8.664;2023-09-08T21:42:38;21.50;71.40
13086;DHT22;6609;49.882;8.664;2023-09-08T21:50:02;21.40;72.30
13086;DHT22;6609;49.882;8.664;2023-09-08T21:59:51;21.20;72.60
13086;DHT22;6609;49.882;8.664;2023-09-08T22:07:13;21.10;72.50
13086;DHT22;6609;49.882;8.664;2023-09-08T22:09:39;21.10;72.50
13086;DHT22;6609;49.882;8.664;2023-09-08T22:14:35;21.10;72.20
13086;DHT22;6609;49.882;8.664;2023-09-08T22:48:59;20.80;72.20
13086;DHT22;6609;49.882;8.664;2023-09-08T23:11:06;20.90;71.70
13086;DHT22;6609;49.882;8.664;2023-09-08T23:13:33;20.90;71.50
13086;DHT22;6609;49.882;8.664;2023-09-08T23:30:43;20.90;70.80
13086;DHT22;6609;49.882;8.664;2023-09-08T23:35:37;21.00;70.30
13086;DHT22;6609;49.882;8.664;2023-09-08T23:43:02;21.00;70.20
